DLH1140 ELLX-EDDF
Flight info
| Callsign | DLH1140 |
|---|---|
| Flight time | 0h 28m |
| Altitude | 23000 |
| Route | ASMOX1R/24 ASMOX Y891 LULAT Y890 KULZO T847 IMCOM IMCOM1A |
| Aircraft | A320/M-SDE3FGHIRWY/LB1 |
Departure
| Time | 2026-05-04 13:00 |
|---|---|
| Airport | Luxembourg-Findel International Airport (ELLX) |
Arrival
| Time | 2026-05-04 13:29 |
|---|---|
| Airport | Frankfurt Main Airport (EDDF) |
| Time | Latitude | Longitude | Altitude | Speed | Heading |
|---|---|---|---|---|---|
| 2026-05-04 12:52 | 49.63158 | 6.21649 | 1196 ft | 0 kts | 61° |
| 2026-05-04 12:55 | 49.63160 | 6.21653 | 1196 ft | 0 kts | 61° |
| 2026-05-04 12:55 | 49.63156 | 6.21644 | 1196 ft | 2 kts | 61° |
| 2026-05-04 12:56 | 49.63151 | 6.21629 | 1196 ft | 2 kts | 68° |
| 2026-05-04 12:56 | 49.63148 | 6.21611 | 1196 ft | 2 kts | 123° |
| 2026-05-04 12:56 | 49.63151 | 6.21603 | 1196 ft | 0 kts | 146° |
| 2026-05-04 12:57 | 49.63143 | 6.21607 | 1196 ft | 4 kts | 157° |
| 2026-05-04 12:57 | 49.63096 | 6.21714 | 1197 ft | 17 kts | 68° |
| 2026-05-04 12:57 | 49.63142 | 6.21859 | 1198 ft | 20 kts | 66° |
| 2026-05-04 12:57 | 49.63243 | 6.22189 | 1199 ft | 37 kts | 64° |
| 2026-05-04 12:58 | 49.63345 | 6.22517 | 1199 ft | 31 kts | 62° |
| 2026-05-04 12:58 | 49.63446 | 6.22788 | 1200 ft | 27 kts | 60° |
| 2026-05-04 12:58 | 49.63530 | 6.23015 | 1200 ft | 22 kts | 60° |
| 2026-05-04 12:58 | 49.63606 | 6.23214 | 1200 ft | 24 kts | 60° |
| 2026-05-04 12:59 | 49.63663 | 6.23414 | 1202 ft | 6 kts | 110° |
| 2026-05-04 12:59 | 49.63631 | 6.23457 | 1207 ft | 22 kts | 146° |
| 2026-05-04 12:59 | 49.63526 | 6.23494 | 1230 ft | 13 kts | 234° |
| 2026-05-04 12:59 | 49.63402 | 6.23189 | 1227 ft | 66 kts | 240° |
| 2026-05-04 13:00 | 49.63066 | 6.22291 | 1222 ft | 124 kts | 240° |
| 2026-05-04 13:00 | 49.62552 | 6.20926 | 1244 ft | 166 kts | 239° |
| 2026-05-04 13:00 | 49.61958 | 6.19386 | 1824 ft | 170 kts | 238° |
| 2026-05-04 13:00 | 49.61541 | 6.18337 | 2242 ft | 175 kts | 235° |
| 2026-05-04 13:01 | 49.60883 | 6.16726 | 2827 ft | 181 kts | 235° |
| 2026-05-04 13:01 | 49.60200 | 6.15086 | 3440 ft | 183 kts | 234° |
| 2026-05-04 13:01 | 49.59527 | 6.13372 | 3898 ft | 195 kts | 237° |
| 2026-05-04 13:01 | 49.58606 | 6.10761 | 4313 ft | 223 kts | 238° |
| 2026-05-04 13:02 | 49.58105 | 6.09322 | 4784 ft | 227 kts | 237° |
| 2026-05-04 13:02 | 49.57345 | 6.07161 | 5596 ft | 230 kts | 237° |
| 2026-05-04 13:02 | 49.56618 | 6.04875 | 6175 ft | 250 kts | 248° |
| 2026-05-04 13:02 | 49.56470 | 6.02099 | 6867 ft | 272 kts | 274° |
| 2026-05-04 13:03 | 49.57265 | 5.99424 | 7673 ft | 291 kts | 307° |
| 2026-05-04 13:03 | 49.58977 | 5.97648 | 8566 ft | 306 kts | 340° |
| 2026-05-04 13:03 | 49.61100 | 5.97306 | 9501 ft | 310 kts | 4° |
| 2026-05-04 13:03 | 49.63193 | 5.98122 | 10384 ft | 313 kts | 27° |
| 2026-05-04 13:04 | 49.64974 | 6.00099 | 10882 ft | 327 kts | 51° |
| 2026-05-04 13:04 | 49.66117 | 6.03208 | 11153 ft | 343 kts | 75° |
| 2026-05-04 13:04 | 49.66775 | 6.06882 | 11370 ft | 365 kts | 78° |
| 2026-05-04 13:04 | 49.67448 | 6.10728 | 11869 ft | 376 kts | 77° |
| 2026-05-04 13:05 | 49.68149 | 6.14654 | 12568 ft | 381 kts | 77° |
| 2026-05-04 13:05 | 49.68867 | 6.18624 | 13260 ft | 386 kts | 77° |
| 2026-05-04 13:05 | 49.69597 | 6.22634 | 13940 ft | 390 kts | 76° |
| 2026-05-04 13:05 | 49.70337 | 6.26700 | 14557 ft | 394 kts | 77° |
| 2026-05-04 13:06 | 49.71071 | 6.30749 | 15150 ft | 397 kts | 77° |
| 2026-05-04 13:06 | 49.71825 | 6.34924 | 15734 ft | 401 kts | 77° |
| 2026-05-04 13:06 | 49.72577 | 6.39108 | 16306 ft | 405 kts | 77° |
| 2026-05-04 13:06 | 49.73322 | 6.43268 | 16874 ft | 408 kts | 77° |
| 2026-05-04 13:07 | 49.74079 | 6.47517 | 17426 ft | 412 kts | 77° |
| 2026-05-04 13:07 | 49.74845 | 6.51801 | 17975 ft | 416 kts | 77° |
| 2026-05-04 13:07 | 49.75620 | 6.56142 | 18553 ft | 420 kts | 77° |
| 2026-05-04 13:07 | 49.76398 | 6.60525 | 19053 ft | 423 kts | 77° |
| 2026-05-04 13:08 | 49.77176 | 6.64932 | 19521 ft | 427 kts | 77° |
| 2026-05-04 13:08 | 49.77964 | 6.69387 | 19876 ft | 430 kts | 77° |
| 2026-05-04 13:08 | 49.78753 | 6.73855 | 19964 ft | 429 kts | 77° |
| 2026-05-04 13:08 | 49.79538 | 6.78324 | 19983 ft | 429 kts | 77° |
| 2026-05-04 13:09 | 49.80319 | 6.82785 | 19968 ft | 428 kts | 77° |
| 2026-05-04 13:09 | 49.81090 | 6.87200 | 19052 ft | 435 kts | 77° |
| 2026-05-04 13:09 | 49.81882 | 6.91757 | 18211 ft | 438 kts | 77° |
| 2026-05-04 13:09 | 49.82672 | 6.96309 | 17510 ft | 435 kts | 77° |
| 2026-05-04 13:10 | 49.83460 | 7.00827 | 16845 ft | 431 kts | 77° |
| 2026-05-04 13:10 | 49.84239 | 7.05282 | 16186 ft | 427 kts | 77° |
| 2026-05-04 13:10 | 49.85005 | 7.09698 | 15561 ft | 422 kts | 77° |
| 2026-05-04 13:10 | 49.85749 | 7.14026 | 14946 ft | 419 kts | 77° |
| 2026-05-04 13:11 | 49.86502 | 7.18416 | 14395 ft | 413 kts | 77° |
| 2026-05-04 13:11 | 49.87233 | 7.22702 | 13610 ft | 413 kts | 77° |
| 2026-05-04 13:11 | 49.87972 | 7.27054 | 12587 ft | 418 kts | 78° |
| 2026-05-04 13:11 | 49.88705 | 7.31367 | 11811 ft | 415 kts | 78° |
| 2026-05-04 13:12 | 49.89438 | 7.35682 | 11213 ft | 413 kts | 78° |
| 2026-05-04 13:12 | 49.90173 | 7.40019 | 11003 ft | 414 kts | 78° |
| 2026-05-04 13:12 | 49.90896 | 7.44281 | 10979 ft | 413 kts | 78° |
| 2026-05-04 13:12 | 49.91630 | 7.48603 | 10994 ft | 414 kts | 78° |
| 2026-05-04 13:13 | 49.92363 | 7.52942 | 10992 ft | 416 kts | 78° |
| 2026-05-04 13:13 | 49.93089 | 7.57282 | 10999 ft | 416 kts | 78° |
| 2026-05-04 13:13 | 49.93817 | 7.61658 | 10986 ft | 416 kts | 78° |
| 2026-05-04 13:13 | 49.94539 | 7.66010 | 10983 ft | 416 kts | 78° |
| 2026-05-04 13:14 | 49.95261 | 7.70361 | 10995 ft | 415 kts | 78° |
| 2026-05-04 13:14 | 49.95973 | 7.74646 | 11000 ft | 415 kts | 78° |
| 2026-05-04 13:14 | 49.96690 | 7.78975 | 10999 ft | 413 kts | 78° |
| 2026-05-04 13:14 | 49.97404 | 7.83297 | 10997 ft | 413 kts | 78° |
| 2026-05-04 13:15 | 49.98117 | 7.87619 | 10994 ft | 413 kts | 78° |
| 2026-05-04 13:15 | 49.98830 | 7.91943 | 10997 ft | 413 kts | 78° |
| 2026-05-04 13:15 | 49.99641 | 7.96229 | 10994 ft | 415 kts | 72° |
| 2026-05-04 13:15 | 50.00673 | 8.00420 | 10997 ft | 415 kts | 71° |
| 2026-05-04 13:16 | 50.01702 | 8.04626 | 10998 ft | 415 kts | 71° |
| 2026-05-04 13:16 | 50.02724 | 8.08833 | 10999 ft | 415 kts | 72° |
| 2026-05-04 13:16 | 50.03741 | 8.13030 | 11002 ft | 415 kts | 72° |
| 2026-05-04 13:16 | 50.04754 | 8.17220 | 10986 ft | 415 kts | 72° |
| 2026-05-04 13:17 | 50.05775 | 8.21432 | 11000 ft | 414 kts | 71° |
| 2026-05-04 13:17 | 50.06760 | 8.25488 | 10994 ft | 400 kts | 71° |
| 2026-05-04 13:17 | 50.07735 | 8.29514 | 10998 ft | 397 kts | 71° |
| 2026-05-04 13:17 | 50.08706 | 8.33531 | 10968 ft | 395 kts | 71° |
| 2026-05-04 13:18 | 50.09665 | 8.37515 | 10451 ft | 390 kts | 71° |
| 2026-05-04 13:18 | 50.10613 | 8.41458 | 9877 ft | 386 kts | 71° |
| 2026-05-04 13:18 | 50.11536 | 8.45293 | 9725 ft | 368 kts | 71° |
| 2026-05-04 13:18 | 50.12409 | 8.48929 | 9578 ft | 346 kts | 71° |
| 2026-05-04 13:19 | 50.13217 | 8.52307 | 9459 ft | 320 kts | 71° |
| 2026-05-04 13:19 | 50.13971 | 8.55463 | 9188 ft | 302 kts | 71° |
| 2026-05-04 13:19 | 50.14695 | 8.58506 | 8767 ft | 298 kts | 71° |
| 2026-05-04 13:19 | 50.15410 | 8.61523 | 8462 ft | 295 kts | 71° |
| 2026-05-04 13:20 | 50.16117 | 8.64510 | 8121 ft | 294 kts | 71° |
| 2026-05-04 13:20 | 50.16824 | 8.67489 | 7791 ft | 292 kts | 71° |
| 2026-05-04 13:20 | 50.17528 | 8.70451 | 7432 ft | 291 kts | 70° |
| 2026-05-04 13:20 | 50.18224 | 8.73375 | 7068 ft | 290 kts | 70° |
| 2026-05-04 13:21 | 50.18931 | 8.76358 | 6692 ft | 289 kts | 70° |
| 2026-05-04 13:21 | 50.19611 | 8.79254 | 6338 ft | 287 kts | 70° |
| 2026-05-04 13:21 | 50.20295 | 8.82175 | 5940 ft | 285 kts | 70° |
| 2026-05-04 13:21 | 50.20976 | 8.85077 | 5569 ft | 283 kts | 70° |
| 2026-05-04 13:22 | 50.21654 | 8.87962 | 5182 ft | 282 kts | 70° |
| 2026-05-04 13:22 | 50.22270 | 8.90848 | 4841 ft | 279 kts | 81° |
| 2026-05-04 13:22 | 50.22188 | 8.93827 | 4458 ft | 274 kts | 111° |
| 2026-05-04 13:22 | 50.21236 | 8.96268 | 4321 ft | 258 kts | 140° |
| 2026-05-04 13:23 | 50.19742 | 8.97634 | 4185 ft | 243 kts | 166° |
| 2026-05-04 13:23 | 50.18134 | 8.97708 | 4078 ft | 227 kts | 199° |
| 2026-05-04 13:23 | 50.16800 | 8.96523 | 4000 ft | 221 kts | 220° |
| 2026-05-04 13:23 | 50.15653 | 8.94956 | 3995 ft | 222 kts | 224° |
| 2026-05-04 13:24 | 50.14495 | 8.93302 | 3994 ft | 221 kts | 224° |
| 2026-05-04 13:24 | 50.13368 | 8.91671 | 4004 ft | 223 kts | 224° |
| 2026-05-04 13:24 | 50.12233 | 8.90029 | 3998 ft | 222 kts | 224° |
| 2026-05-04 13:25 | 50.10494 | 8.86166 | 4008 ft | 222 kts | 250° |
| 2026-05-04 13:25 | 50.09976 | 8.83907 | 4006 ft | 217 kts | 250° |
| 2026-05-04 13:25 | 50.09476 | 8.81761 | 4003 ft | 206 kts | 249° |
| 2026-05-04 13:25 | 50.08961 | 8.79587 | 3973 ft | 226 kts | 250° |
| 2026-05-04 13:26 | 50.08420 | 8.77307 | 3623 ft | 222 kts | 250° |
| 2026-05-04 13:26 | 50.07922 | 8.75039 | 2888 ft | 223 kts | 252° |
| 2026-05-04 13:26 | 50.07463 | 8.72741 | 2216 ft | 220 kts | 251° |
| 2026-05-04 13:26 | 50.06941 | 8.70568 | 1772 ft | 210 kts | 245° |
| 2026-05-04 13:27 | 50.06359 | 8.68507 | 1515 ft | 205 kts | 248° |
| 2026-05-04 13:27 | 50.05910 | 8.66502 | 1408 ft | 185 kts | 250° |
| 2026-05-04 13:27 | 50.05484 | 8.64719 | 1279 ft | 165 kts | 248° |
| 2026-05-04 13:27 | 50.05092 | 8.63138 | 1080 ft | 153 kts | 248° |
| 2026-05-04 13:28 | 50.04735 | 8.61647 | 905 ft | 142 kts | 249° |
| 2026-05-04 13:28 | 50.04388 | 8.60180 | 639 ft | 147 kts | 248° |
| 2026-05-04 13:28 | 50.04018 | 8.58674 | 430 ft | 151 kts | 246° |
| 2026-05-04 13:28 | 50.03666 | 8.57259 | 360 ft | 124 kts | 248° |
| 2026-05-04 13:29 | 50.03418 | 8.56216 | 358 ft | 80 kts | 250° |
| 2026-05-04 13:29 | 50.03307 | 8.55584 | 343 ft | 44 kts | 270° |
| 2026-05-04 13:29 | 50.03354 | 8.55185 | 350 ft | 32 kts | 296° |
| 2026-05-04 13:29 | 50.03382 | 8.55070 | 350 ft | 1 kts | 287° |
| 2026-05-04 13:30 | 50.03361 | 8.54918 | 350 ft | 26 kts | 251° |
| 2026-05-04 13:30 | 50.03294 | 8.54640 | 336 ft | 28 kts | 249° |
| 2026-05-04 13:30 | 50.03294 | 8.54492 | 337 ft | 1 kts | 332° |
| 2026-05-04 13:30 | 50.03335 | 8.54469 | 337 ft | 0 kts | 340° |
| 2026-05-04 13:31 | 50.03469 | 8.54392 | 349 ft | 45 kts | 339° |
| 2026-05-04 13:31 | 50.03651 | 8.54321 | 350 ft | 11 kts | 29° |
| 2026-05-04 13:31 | 50.03677 | 8.54397 | 347 ft | 9 kts | 67° |
| 2026-05-04 13:32 | 50.03713 | 8.54550 | 347 ft | 15 kts | 72° |
| 2026-05-04 13:32 | 50.03745 | 8.54689 | 353 ft | 12 kts | 68° |
| 2026-05-04 13:32 | 50.03773 | 8.54800 | 354 ft | 11 kts | 69° |
| 2026-05-04 13:32 | 50.03806 | 8.54940 | 349 ft | 13 kts | 70° |
| 2026-05-04 13:33 | 50.03862 | 8.55171 | 351 ft | 37 kts | 70° |
| 2026-05-04 13:33 | 50.03954 | 8.55559 | 356 ft | 39 kts | 69° |
| 2026-05-04 13:33 | 50.04026 | 8.55859 | 358 ft | 27 kts | 70° |
| 2026-05-04 13:33 | 50.04093 | 8.56138 | 355 ft | 28 kts | 69° |
| 2026-05-04 13:34 | 50.04171 | 8.56279 | 353 ft | 14 kts | 356° |
| 2026-05-04 13:34 | 50.04262 | 8.56228 | 359 ft | 16 kts | 338° |
| 2026-05-04 13:34 | 50.04305 | 8.56089 | 362 ft | 14 kts | 309° |
| 2026-05-04 13:34 | 50.04382 | 8.56034 | 360 ft | 11 kts | 343° |
| 2026-05-04 13:35 | 50.04444 | 8.56100 | 359 ft | 12 kts | 68° |
| 2026-05-04 13:35 | 50.04528 | 8.56210 | 358 ft | 6 kts | 15° |
| 2026-05-04 13:35 | 50.04541 | 8.56225 | 363 ft | 0 kts | 36° |